createdAt,value
2022-10-04T00:01:13.013Z,10.30
2022-10-04T00:03:46.271Z,10.20
2022-10-04T00:06:25.496Z,10.30
2022-10-04T00:09:17.929Z,10.30
2022-10-04T00:11:46.707Z,10.20
2022-10-04T00:14:20.928Z,10.30
2022-10-04T00:16:49.027Z,10.30
2022-10-04T00:19:15.767Z,10.30
2022-10-04T00:21:56.451Z,10.30
2022-10-04T00:24:28.792Z,10.30
2022-10-04T00:27:25.942Z,10.30
2022-10-04T00:30:04.924Z,10.40
2022-10-04T00:32:41.433Z,10.40
2022-10-04T00:35:28.741Z,10.40
2022-10-04T00:38:07.521Z,10.40
2022-10-04T00:41:00.244Z,10.40
2022-10-04T00:43:47.153Z,10.30
2022-10-04T00:46:21.070Z,10.30
2022-10-04T00:48:50.420Z,10.30
2022-10-04T00:51:28.478Z,10.30
2022-10-04T00:53:57.401Z,10.40
2022-10-04T00:56:37.741Z,10.30
2022-10-04T00:59:28.746Z,10.30
2022-10-04T01:02:26.682Z,10.30
2022-10-04T01:05:04.346Z,10.20
2022-10-04T01:07:35.504Z,10.20
2022-10-04T01:10:09.402Z,10.20
2022-10-04T01:13:03.419Z,10.10
2022-10-04T01:15:45.293Z,10.10
2022-10-04T01:18:16.998Z,10.20
2022-10-04T01:21:09.058Z,10.10
2022-10-04T01:23:41.861Z,10.20
2022-10-04T01:26:29.211Z,10.20
2022-10-04T01:29:24.244Z,10.20
2022-10-04T01:31:53.417Z,10.10
2022-10-04T01:34:56.996Z,10.10
2022-10-04T01:37:24.086Z,10.10
2022-10-04T01:39:51.024Z,10.10
2022-10-04T01:42:51.663Z,10.00
2022-10-04T01:45:52.046Z,9.90
2022-10-04T01:48:25.713Z,9.90
2022-10-04T01:51:04.525Z,9.90
2022-10-04T01:53:35.795Z,9.90
2022-10-04T01:56:14.084Z,10.10
2022-10-04T01:58:51.017Z,10.00
2022-10-04T02:01:38.006Z,10.00
2022-10-04T02:04:24.032Z,9.90
2022-10-04T02:06:55.015Z,9.90
2022-10-04T02:09:47.806Z,9.90
2022-10-04T02:12:18.818Z,9.90
2022-10-04T02:14:54.208Z,10.00
2022-10-04T02:17:28.600Z,9.90
2022-10-04T02:19:56.763Z,9.90
2022-10-04T02:22:25.613Z,9.90
2022-10-04T02:24:56.098Z,9.80
2022-10-04T02:27:32.693Z,9.80
2022-10-04T02:30:09.163Z,9.80
2022-10-04T02:32:56.858Z,9.80
2022-10-04T02:35:35.927Z,9.80
2022-10-04T02:38:22.248Z,9.80
2022-10-04T02:41:22.046Z,9.70
2022-10-04T02:43:58.447Z,9.80
2022-10-04T02:46:42.516Z,9.80
2022-10-04T02:49:21.719Z,9.80
2022-10-04T02:51:58.182Z,9.80
2022-10-04T02:54:35.661Z,9.70
2022-10-04T02:57:03.225Z,9.70
2022-10-04T02:59:35.208Z,9.80
2022-10-04T03:02:02.879Z,9.80
2022-10-04T03:04:40.057Z,9.80
2022-10-04T03:07:09.258Z,9.80
2022-10-04T03:09:38.132Z,9.80
2022-10-04T03:12:05.824Z,9.90
2022-10-04T03:14:33.399Z,9.80
2022-10-04T03:17:04.231Z,9.90
2022-10-04T03:19:32.925Z,10.00
2022-10-04T03:22:08.018Z,10.00
2022-10-04T03:24:47.078Z,9.90
2022-10-04T03:27:22.018Z,9.90
2022-10-04T03:29:50.493Z,10.00
2022-10-04T03:32:23.042Z,10.00
2022-10-04T03:34:57.500Z,9.90
2022-10-04T03:37:26.560Z,10.00
2022-10-04T03:39:55.949Z,9.90
2022-10-04T03:42:41.283Z,9.90
2022-10-04T03:45:15.656Z,10.00
2022-10-04T03:47:46.771Z,9.90
2022-10-04T03:50:26.659Z,9.90
2022-10-04T03:53:06.321Z,9.90
2022-10-04T03:55:38.155Z,9.90
2022-10-04T03:58:07.355Z,9.90
2022-10-04T04:00:42.687Z,9.90
2022-10-04T04:03:16.857Z,10.10
2022-10-04T04:05:50.786Z,10.00
2022-10-04T04:08:37.131Z,10.10
2022-10-04T04:11:07.475Z,10.00
2022-10-04T04:13:58.586Z,10.00
2022-10-04T04:16:28.772Z,10.00
2022-10-04T04:19:01.010Z,10.10
2022-10-04T04:21:29.250Z,10.10
2022-10-04T04:24:03.109Z,10.00
2022-10-04T04:26:55.138Z,10.10
2022-10-04T04:29:52.757Z,10.10
2022-10-04T04:32:24.214Z,10.10
2022-10-04T04:34:53.962Z,10.10
2022-10-04T04:37:34.163Z,10.10
2022-10-04T04:40:29.961Z,10.10
2022-10-04T04:43:03.201Z,10.20
2022-10-04T04:45:32.339Z,10.20
2022-10-04T04:48:01.273Z,10.10
2022-10-04T04:50:35.704Z,10.20
2022-10-04T04:53:07.484Z,10.30
2022-10-04T04:56:03.454Z,10.20
2022-10-04T04:58:38.745Z,10.20
2022-10-04T05:01:07.666Z,10.20
2022-10-04T05:03:34.703Z,10.40
2022-10-04T05:06:04.794Z,10.20
2022-10-04T05:08:38.598Z,10.30
2022-10-04T05:11:21.755Z,10.30
2022-10-04T05:13:57.524Z,10.30
2022-10-04T05:16:45.571Z,10.40
2022-10-04T05:19:25.175Z,10.40
2022-10-04T05:21:54.420Z,10.30
2022-10-04T05:24:23.885Z,10.30
2022-10-04T05:26:57.459Z,10.20
2022-10-04T05:29:28.239Z,10.20
2022-10-04T05:32:24.117Z,10.10
2022-10-04T05:34:51.398Z,10.20
2022-10-04T05:37:36.990Z,10.20
2022-10-04T05:40:39.330Z,10.30
2022-10-04T05:43:29.050Z,10.40
2022-10-04T05:46:11.069Z,10.50
2022-10-04T05:48:41.766Z,10.50
2022-10-04T05:51:20.881Z,10.50
2022-10-04T05:53:50.035Z,10.50
2022-10-04T05:56:41.888Z,10.50
2022-10-04T05:59:11.732Z,10.50
2022-10-04T06:02:00.264Z,10.60
2022-10-04T06:04:56.131Z,10.70
2022-10-04T06:07:38.177Z,10.70
2022-10-04T06:10:26.080Z,10.80
2022-10-04T06:13:26.769Z,10.70
2022-10-04T06:16:08.979Z,10.80
2022-10-04T06:18:56.979Z,10.80
2022-10-04T06:21:52.279Z,10.80
2022-10-04T06:24:29.553Z,10.90
2022-10-04T06:27:04.820Z,11.00
2022-10-04T06:29:38.496Z,11.10
2022-10-04T06:32:11.585Z,11.10
2022-10-04T06:35:20.489Z,11.10
2022-10-04T06:37:50.740Z,11.20
2022-10-04T06:40:26.906Z,11.20
2022-10-04T06:43:08.892Z,11.10
2022-10-04T06:46:15.733Z,11.30
2022-10-04T06:49:17.351Z,11.20
2022-10-04T06:52:25.938Z,11.20
2022-10-04T06:55:30.399Z,11.20
2022-10-04T06:58:18.010Z,11.20
2022-10-04T07:01:01.540Z,11.20
2022-10-04T07:03:39.713Z,11.20
2022-10-04T07:06:10.485Z,11.30
2022-10-04T07:08:47.422Z,11.40
2022-10-04T07:11:17.503Z,11.50
2022-10-04T07:14:02.981Z,11.60
2022-10-04T07:16:42.901Z,11.60
2022-10-04T07:19:36.883Z,11.60
2022-10-04T07:22:07.045Z,11.60
2022-10-04T07:24:53.524Z,11.70
2022-10-04T07:27:32.442Z,11.70
2022-10-04T07:30:04.051Z,11.70
2022-10-04T07:32:38.884Z,11.80
2022-10-04T07:35:12.958Z,11.70
2022-10-04T07:37:54.364Z,11.90
2022-10-04T07:40:30.092Z,11.80
2022-10-04T07:43:13.634Z,11.70
2022-10-04T07:45:42.306Z,11.80
2022-10-04T07:48:23.467Z,11.80
2022-10-04T07:50:56.452Z,11.70
2022-10-04T07:53:38.343Z,11.70
2022-10-04T07:56:19.202Z,11.70
2022-10-04T07:59:23.017Z,11.70
2022-10-04T08:02:38.057Z,11.80
2022-10-04T08:05:37.263Z,11.90
2022-10-04T08:11:35.029Z,12.00
2022-10-04T08:15:11.460Z,12.10
2022-10-04T08:17:48.055Z,12.10
2022-10-04T08:20:29.333Z,12.00
2022-10-04T08:23:19.111Z,12.00
2022-10-04T08:25:54.809Z,12.10
2022-10-04T08:29:28.166Z,12.10
2022-10-04T08:32:05.657Z,12.20
2022-10-04T08:34:57.986Z,12.30
2022-10-04T08:37:24.747Z,12.40
2022-10-04T08:40:25.068Z,12.40
2022-10-04T08:43:00.590Z,12.40
2022-10-04T08:45:38.227Z,12.50
2022-10-04T08:48:33.015Z,12.80
2022-10-04T08:51:04.989Z,12.90
2022-10-04T08:53:52.882Z,13.10
2022-10-04T08:56:57.936Z,13.20
2022-10-04T08:59:27.684Z,13.20
2022-10-04T09:02:32.177Z,13.20
2022-10-04T09:05:14.869Z,13.20
2022-10-04T09:07:52.031Z,13.30
2022-10-04T09:11:13.000Z,13.20
2022-10-04T09:14:11.474Z,13.20
2022-10-04T09:17:26.523Z,13.20
2022-10-04T09:20:37.221Z,13.20
2022-10-04T09:23:22.156Z,13.20
2022-10-04T09:26:00.520Z,13.10
2022-10-04T09:28:45.956Z,13.10
2022-10-04T09:31:44.895Z,13.20
2022-10-04T09:37:07.009Z,13.60
2022-10-04T09:40:01.398Z,13.70
2022-10-04T09:45:32.058Z,13.60
2022-10-04T09:48:25.127Z,13.70
2022-10-04T09:51:25.410Z,13.60
2022-10-04T09:54:07.450Z,13.70
2022-10-04T09:56:56.624Z,13.80
2022-10-04T09:59:36.689Z,14.00
2022-10-04T10:02:14.740Z,14.00
2022-10-04T10:05:19.320Z,13.90
2022-10-04T10:08:08.197Z,13.80
2022-10-04T10:10:53.733Z,13.70
2022-10-04T10:13:43.321Z,13.80
2022-10-04T10:16:13.292Z,13.70
2022-10-04T10:19:13.005Z,13.60
2022-10-04T10:22:17.344Z,13.50
2022-10-04T10:25:06.585Z,13.60
2022-10-04T10:27:39.611Z,13.60
2022-10-04T10:30:34.682Z,13.60
2022-10-04T10:33:20.479Z,13.70
2022-10-04T10:39:49.936Z,15.20
2022-10-04T10:43:03.231Z,15.80
2022-10-04T10:46:09.366Z,15.80
2022-10-04T10:48:44.998Z,15.50
2022-10-04T10:51:26.029Z,15.20
2022-10-04T10:54:14.040Z,15.30
2022-10-04T10:57:14.548Z,15.80
2022-10-04T10:59:51.093Z,15.90
2022-10-04T11:03:13.487Z,15.60
2022-10-04T11:06:07.164Z,15.20
2022-10-04T11:08:58.901Z,15.20
2022-10-04T11:11:50.592Z,15.20
2022-10-04T11:14:20.872Z,15.10
2022-10-04T11:17:43.983Z,15.70
2022-10-04T11:20:47.618Z,16.00
2022-10-04T11:28:02.668Z,16.70
2022-10-04T11:31:09.205Z,16.30
2022-10-04T11:34:00.997Z,15.90
2022-10-04T11:42:26.288Z,15.00
2022-10-04T11:45:17.662Z,14.80
2022-10-04T11:48:11.568Z,14.70
2022-10-04T11:51:00.904Z,15.80
2022-10-04T11:54:04.931Z,16.00
2022-10-04T11:57:15.044Z,15.90
2022-10-04T12:00:02.525Z,15.60
2022-10-04T12:02:47.414Z,15.50
2022-10-04T12:05:55.592Z,16.00
2022-10-04T12:09:14.994Z,16.00
2022-10-04T12:12:37.786Z,15.70
2022-10-04T12:15:20.499Z,15.60
2022-10-04T12:18:09.040Z,15.30
2022-10-04T12:20:42.316Z,15.10
2022-10-04T12:23:31.105Z,15.10
2022-10-04T12:26:42.985Z,15.10
2022-10-04T12:29:29.000Z,15.30
2022-10-04T12:32:06.815Z,15.10
2022-10-04T12:35:00.966Z,15.20
2022-10-04T12:37:51.047Z,15.20
2022-10-04T12:40:29.932Z,15.00
2022-10-04T12:43:08.636Z,15.20
2022-10-04T12:46:12.624Z,15.30
2022-10-04T12:49:19.673Z,15.60
2022-10-04T12:52:20.097Z,15.40
2022-10-04T12:54:52.458Z,15.70
2022-10-04T12:57:29.209Z,15.70
2022-10-04T13:00:16.959Z,15.80
2022-10-04T13:03:22.580Z,15.70
2022-10-04T13:06:21.510Z,15.60
2022-10-04T13:09:20.871Z,15.30
2022-10-04T13:12:00.592Z,15.00
2022-10-04T13:14:49.242Z,15.20
2022-10-04T13:17:35.755Z,15.40
2022-10-04T13:20:35.554Z,15.00
2022-10-04T13:23:26.563Z,15.00
2022-10-04T13:26:33.985Z,15.00
2022-10-04T13:29:25.413Z,15.20
2022-10-04T13:32:22.774Z,15.00
2022-10-04T13:35:03.551Z,14.70
2022-10-04T13:38:00.621Z,14.70
2022-10-04T13:40:56.087Z,14.60
2022-10-04T13:43:58.521Z,14.70
2022-10-04T13:46:40.483Z,14.60
2022-10-04T13:49:24.293Z,14.60
2022-10-04T13:52:39.057Z,14.80
2022-10-04T13:55:24.305Z,15.10
2022-10-04T13:58:19.080Z,15.10
2022-10-04T14:01:10.506Z,15.20
2022-10-04T14:04:08.303Z,15.20
2022-10-04T14:06:44.223Z,15.30
2022-10-04T14:09:46.965Z,15.20
2022-10-04T14:12:38.631Z,15.00
2022-10-04T14:15:33.236Z,15.00
2022-10-04T14:18:27.439Z,14.90
2022-10-04T14:21:33.629Z,14.80
2022-10-04T14:24:09.546Z,14.70
2022-10-04T14:26:46.558Z,14.40
2022-10-04T14:29:20.214Z,14.40
2022-10-04T14:31:50.608Z,14.40
2022-10-04T14:34:30.554Z,14.30
2022-10-04T14:37:03.769Z,14.30
2022-10-04T14:39:58.802Z,14.20
2022-10-04T14:42:31.282Z,14.20
2022-10-04T14:45:24.522Z,14.10
2022-10-04T14:48:09.627Z,14.20
2022-10-04T14:50:36.375Z,14.20
2022-10-04T14:53:22.187Z,14.20
2022-10-04T14:56:26.265Z,14.20
2022-10-04T14:59:14.116Z,14.30
2022-10-04T15:02:07.597Z,14.30
2022-10-04T15:04:54.344Z,14.30
2022-10-04T15:07:29.387Z,14.30
2022-10-04T15:10:10.801Z,14.20
2022-10-04T15:13:16.088Z,14.30
2022-10-04T15:16:01.363Z,14.10
2022-10-04T15:18:31.165Z,14.10
2022-10-04T15:21:22.699Z,14.10
2022-10-04T15:23:58.544Z,14.00
2022-10-04T15:26:31.719Z,14.00
2022-10-04T15:29:23.760Z,14.00
2022-10-04T15:32:16.579Z,13.80
2022-10-04T15:34:50.855Z,13.70
2022-10-04T15:37:49.988Z,13.70
2022-10-04T15:40:31.722Z,13.60
2022-10-04T15:43:25.007Z,13.60
2022-10-04T15:45:57.284Z,13.60
2022-10-04T15:49:10.671Z,13.60
2022-10-04T15:52:09.713Z,13.60
2022-10-04T15:55:10.816Z,13.50
2022-10-04T15:58:02.913Z,13.50
2022-10-04T16:00:46.981Z,13.40
2022-10-04T16:04:14.208Z,13.40
2022-10-04T16:07:00.835Z,13.30
2022-10-04T16:09:45.223Z,13.20
2022-10-04T16:12:19.884Z,13.20
2022-10-04T16:15:16.224Z,13.10
2022-10-04T16:18:07.449Z,13.10
2022-10-04T16:21:12.845Z,12.90
2022-10-04T16:23:44.245Z,12.80
2022-10-04T16:26:11.021Z,12.70
2022-10-04T16:29:22.249Z,12.80
2022-10-04T16:31:51.632Z,12.80
2022-10-04T16:34:43.340Z,12.70
2022-10-04T16:37:10.283Z,12.70
2022-10-04T16:40:03.633Z,12.70
2022-10-04T16:42:45.484Z,12.60
2022-10-04T16:45:12.445Z,12.60
2022-10-04T16:47:55.567Z,12.60
2022-10-04T16:50:57.250Z,12.50
2022-10-04T16:53:46.099Z,12.50
2022-10-04T16:56:23.400Z,12.40
2022-10-04T16:58:58.286Z,12.30
2022-10-04T17:01:35.150Z,12.40
2022-10-04T17:04:05.050Z,12.20
2022-10-04T17:06:57.883Z,12.20
2022-10-04T17:09:30.795Z,12.10
2022-10-04T17:12:23.676Z,12.10
2022-10-04T17:15:25.297Z,11.90
2022-10-04T17:18:10.723Z,11.90
2022-10-04T17:20:40.957Z,11.90
2022-10-04T17:23:32.253Z,11.90
2022-10-04T17:26:29.620Z,11.70
2022-10-04T17:28:58.504Z,11.80
2022-10-04T17:32:03.527Z,11.70
2022-10-04T17:34:57.408Z,11.60
2022-10-04T17:37:40.435Z,11.60
2022-10-04T17:40:13.273Z,11.60
2022-10-04T17:43:11.042Z,11.50
2022-10-04T17:45:46.805Z,11.50
2022-10-04T17:48:50.929Z,11.60
2022-10-04T17:51:39.080Z,11.50
2022-10-04T17:54:35.080Z,11.50
2022-10-04T17:57:05.636Z,11.50
2022-10-04T17:59:43.947Z,11.50
2022-10-04T18:02:55.931Z,11.50
2022-10-04T18:05:31.448Z,11.50
2022-10-04T18:08:33.807Z,11.50
2022-10-04T18:11:30.800Z,11.50
2022-10-04T18:14:12.770Z,11.40
2022-10-04T18:16:55.158Z,11.40
2022-10-04T18:19:52.711Z,11.30
2022-10-04T18:22:27.082Z,11.30
2022-10-04T18:25:26.846Z,11.30
2022-10-04T18:28:09.715Z,11.20
2022-10-04T18:30:54.891Z,11.10
2022-10-04T18:33:26.604Z,11.10
2022-10-04T18:36:06.179Z,11.10
2022-10-04T18:38:37.115Z,11.20
2022-10-04T18:41:16.306Z,11.20
2022-10-04T18:43:58.935Z,11.10
2022-10-04T18:46:26.138Z,11.10
2022-10-04T18:49:02.811Z,11.10
2022-10-04T18:51:40.795Z,10.90
2022-10-04T18:54:36.504Z,11.00
2022-10-04T18:57:27.328Z,11.00
2022-10-04T19:00:35.981Z,10.90
2022-10-04T19:03:35.422Z,10.90
2022-10-04T19:06:34.449Z,10.80
2022-10-04T19:09:37.973Z,10.80
2022-10-04T19:12:18.386Z,10.80
2022-10-04T19:14:52.470Z,10.70
2022-10-04T19:17:36.968Z,10.70
2022-10-04T19:20:36.759Z,10.70
2022-10-04T19:23:20.537Z,10.70
2022-10-04T19:26:26.342Z,10.60
2022-10-04T19:28:41.846Z,10.60
2022-10-04T19:31:29.355Z,10.60
2022-10-04T19:34:23.236Z,10.60
2022-10-04T19:37:18.861Z,10.50
2022-10-04T19:40:27.058Z,10.50
2022-10-04T19:43:06.005Z,10.50
2022-10-04T19:46:09.973Z,10.50
2022-10-04T19:48:50.581Z,10.40
2022-10-04T19:51:26.723Z,10.50
2022-10-04T19:54:00.087Z,10.50
2022-10-04T19:56:36.456Z,10.50
2022-10-04T19:59:13.629Z,10.40
2022-10-04T20:01:41.240Z,10.40
2022-10-04T20:04:33.656Z,10.30
2022-10-04T20:07:03.170Z,10.30
2022-10-04T20:09:49.858Z,10.30
2022-10-04T20:12:33.497Z,10.20
2022-10-04T20:15:23.758Z,10.20
2022-10-04T20:18:08.742Z,10.20
2022-10-04T20:20:39.722Z,10.10
2022-10-04T20:23:12.011Z,10.20
2022-10-04T20:25:49.562Z,10.10
2022-10-04T20:28:32.862Z,10.20
2022-10-04T20:31:21.552Z,10.20
2022-10-04T20:38:27.306Z,10.10
2022-10-04T20:41:02.775Z,10.00
2022-10-04T20:43:33.671Z,10.00
2022-10-04T20:46:02.087Z,10.00
2022-10-04T20:48:32.017Z,10.00
2022-10-04T20:51:18.375Z,9.90
2022-10-04T20:53:51.173Z,9.90
2022-10-04T20:56:24.620Z,9.90
2022-10-04T20:59:03.523Z,9.90
2022-10-04T21:01:36.263Z,9.80
2022-10-04T21:04:51.070Z,9.80
2022-10-04T21:07:19.346Z,9.80
2022-10-04T21:09:46.683Z,9.80
2022-10-04T21:12:54.291Z,9.80
2022-10-04T21:15:32.563Z,9.80
2022-10-04T21:21:01.602Z,9.80
2022-10-04T21:23:34.954Z,9.70
2022-10-04T21:26:22.207Z,9.80
2022-10-04T21:28:58.821Z,9.80
2022-10-04T21:31:25.990Z,9.80
2022-10-04T21:33:52.902Z,9.80
2022-10-04T21:36:19.755Z,9.80
2022-10-04T21:38:46.564Z,9.80
2022-10-04T21:41:13.383Z,9.70
2022-10-04T21:43:40.181Z,9.70
2022-10-04T21:46:07.349Z,9.70
2022-10-04T21:48:34.528Z,9.70
2022-10-04T21:51:01.616Z,9.70
2022-10-04T21:53:28.421Z,9.70
2022-10-04T21:55:55.391Z,9.70
2022-10-04T21:58:22.183Z,9.70
2022-10-04T22:00:49.308Z,9.60
2022-10-04T22:03:33.943Z,9.60
2022-10-04T22:08:53.585Z,9.50
2022-10-04T22:11:26.729Z,9.60
2022-10-04T22:19:53.392Z,9.40
2022-10-04T22:22:20.336Z,9.40
2022-10-04T22:24:47.255Z,9.40
2022-10-04T22:27:15.912Z,9.30
2022-10-04T22:29:43.041Z,9.20
2022-10-04T22:32:27.379Z,9.20
2022-10-04T22:35:02.024Z,9.20
2022-10-04T22:37:31.151Z,9.20
2022-10-04T22:39:58.291Z,9.10
2022-10-04T22:42:29.843Z,9.10
2022-10-04T22:45:01.130Z,9.10
2022-10-04T22:47:31.451Z,9.10
2022-10-04T22:49:58.303Z,9.10
2022-10-04T22:52:27.615Z,9.10
2022-10-04T22:54:57.976Z,9.10
2022-10-04T22:57:25.258Z,9.10
2022-10-04T22:59:53.259Z,9.10
2022-10-04T23:02:24.232Z,9.20
2022-10-04T23:04:57.068Z,9.20
2022-10-04T23:07:24.258Z,9.20
2022-10-04T23:09:51.045Z,9.20
2022-10-04T23:12:18.024Z,9.30
2022-10-04T23:14:45.011Z,9.30
2022-10-04T23:17:24.408Z,9.30
2022-10-04T23:20:18.790Z,9.20
2022-10-04T23:22:47.520Z,9.20
2022-10-04T23:25:18.087Z,9.10
2022-10-04T23:27:45.843Z,9.20
2022-10-04T23:33:24.338Z,9.10
2022-10-04T23:35:57.648Z,9.10
2022-10-04T23:38:40.388Z,9.10
2022-10-04T23:41:22.398Z,9.00
2022-10-04T23:43:55.215Z,9.10
2022-10-04T23:46:24.692Z,9.10
2022-10-04T23:48:51.765Z,9.00
2022-10-04T23:51:20.085Z,9.00
2022-10-04T23:53:49.196Z,9.00
2022-10-04T23:56:25.224Z,9.00
2022-10-04T23:58:55.162Z,9.00
